sensor_id;sensor_type;location;lat;lon;timestamp;pressure;altitude;pressure_sealevel;temperature;humidity
7182;BME280;3632;42.724;23.298;2023-07-20T00:01:48;95038.75;;;24.63;65.68
7182;BME280;3632;42.724;23.298;2023-07-20T00:04:14;95034.09;;;24.72;64.84
7182;BME280;3632;42.724;23.298;2023-07-20T00:06:41;95039.78;;;24.87;66.28
7182;BME280;3632;42.724;23.298;2023-07-20T00:09:09;95044.41;;;24.85;67.30
7182;BME280;3632;42.724;23.298;2023-07-20T00:11:37;95048.53;;;24.99;66.91
7182;BME280;3632;42.724;23.298;2023-07-20T00:14:04;94860.47;;;23.78;66.97
7182;BME280;3632;42.724;23.298;2023-07-20T00:16:31;95043.44;;;24.79;68.16
7182;BME280;3632;42.724;23.298;2023-07-20T00:18:58;94938.84;;;24.26;67.68
7182;BME280;3632;42.724;23.298;2023-07-20T00:21:25;95016.47;;;24.67;68.60
7182;BME280;3632;42.724;23.298;2023-07-20T00:23:51;95051.38;;;24.66;70.43
7182;BME280;3632;42.724;23.298;2023-07-20T00:26:20;95054.78;;;24.91;68.53
7182;BME280;3632;42.724;23.298;2023-07-20T00:28:46;95053.06;;;24.79;66.43
7182;BME280;3632;42.724;23.298;2023-07-20T00:31:13;94944.69;;;24.22;65.74
7182;BME280;3632;42.724;23.298;2023-07-20T00:33:40;94955.75;;;24.10;67.31
7182;BME280;3632;42.724;23.298;2023-07-20T00:36:06;95071.19;;;24.74;68.19
7182;BME280;3632;42.724;23.298;2023-07-20T00:38:33;94851.56;;;23.23;70.15
7182;BME280;3632;42.724;23.298;2023-07-20T00:41:00;95060.16;;;24.40;71.80
7182;BME280;3632;42.724;23.298;2023-07-20T00:43:28;95063.34;;;24.04;72.39
7182;BME280;3632;42.724;23.298;2023-07-20T00:45:55;95054.03;;;23.77;73.29
7182;BME280;3632;42.724;23.298;2023-07-20T00:48:22;95055.69;;;23.72;73.76
7182;BME280;3632;42.724;23.298;2023-07-20T00:50:50;95049.50;;;23.66;75.26
7182;BME280;3632;42.724;23.298;2023-07-20T00:53:17;94995.50;;;23.55;74.38
7182;BME280;3632;42.724;23.298;2023-07-20T00:55:44;94892.44;;;23.03;73.45
7182;BME280;3632;42.724;23.298;2023-07-20T00:58:11;95031.44;;;24.22;72.27
7182;BME280;3632;42.724;23.298;2023-07-20T01:00:39;95032.44;;;24.14;71.65
7182;BME280;3632;42.724;23.298;2023-07-20T01:03:06;95083.06;;;23.87;73.23
7182;BME280;3632;42.724;23.298;2023-07-20T01:05:40;95035.97;;;23.95;74.04
7182;BME280;3632;42.724;23.298;2023-07-20T01:08:11;95027.47;;;24.06;73.50
7182;BME280;3632;42.724;23.298;2023-07-20T01:10:40;95052.34;;;24.02;74.17
7182;BME280;3632;42.724;23.298;2023-07-20T01:13:10;95037.81;;;23.82;74.96
7182;BME280;3632;42.724;23.298;2023-07-20T01:15:39;95046.00;;;23.92;74.99
7182;BME280;3632;42.724;23.298;2023-07-20T01:18:05;95030.56;;;23.90;74.30
7182;BME280;3632;42.724;23.298;2023-07-20T01:20:33;94958.09;;;23.43;74.66
7182;BME280;3632;42.724;23.298;2023-07-20T01:23:22;94887.22;;;23.09;74.17
7182;BME280;3632;42.724;23.298;2023-07-20T01:26:04;95043.94;;;24.00;73.23
7182;BME280;3632;42.724;23.298;2023-07-20T01:28:57;95042.59;;;23.91;74.91
7182;BME280;3632;42.724;23.298;2023-07-20T01:31:33;95046.31;;;24.08;73.53
7182;BME280;3632;42.724;23.298;2023-07-20T01:34:02;95048.41;;;23.87;73.44
7182;BME280;3632;42.724;23.298;2023-07-20T01:36:33;95057.44;;;23.84;73.71
7182;BME280;3632;42.724;23.298;2023-07-20T01:39:00;94944.66;;;22.88;73.98
7182;BME280;3632;42.724;23.298;2023-07-20T01:41:28;94996.00;;;23.19;75.77
7182;BME280;3632;42.724;23.298;2023-07-20T01:43:57;95032.34;;;23.39;76.34
7182;BME280;3632;42.724;23.298;2023-07-20T01:46:24;95035.91;;;23.57;75.62
7182;BME280;3632;42.724;23.298;2023-07-20T01:48:53;94923.88;;;22.95;74.23
7182;BME280;3632;42.724;23.298;2023-07-20T01:51:21;95035.59;;;23.85;73.85
7182;BME280;3632;42.724;23.298;2023-07-20T01:53:47;95007.47;;;23.62;74.25
7182;BME280;3632;42.724;23.298;2023-07-20T01:56:14;95042.63;;;23.78;74.64
7182;BME280;3632;42.724;23.298;2023-07-20T01:58:41;95033.16;;;23.26;77.44
7182;BME280;3632;42.724;23.298;2023-07-20T02:01:07;95029.63;;;23.01;78.56
7182;BME280;3632;42.724;23.298;2023-07-20T02:03:34;95031.78;;;23.23;78.06
7182;BME280;3632;42.724;23.298;2023-07-20T02:06:02;95033.34;;;23.31;78.44
7182;BME280;3632;42.724;23.298;2023-07-20T02:08:29;95026.16;;;23.46;77.45
7182;BME280;3632;42.724;23.298;2023-07-20T02:10:56;95028.78;;;23.20;78.32
7182;BME280;3632;42.724;23.298;2023-07-20T02:13:23;95023.44;;;22.89;79.77
7182;BME280;3632;42.724;23.298;2023-07-20T02:15:50;95031.03;;;22.84;81.62
7182;BME280;3632;42.724;23.298;2023-07-20T02:18:17;95029.44;;;22.89;81.78
7182;BME280;3632;42.724;23.298;2023-07-20T02:20:43;95031.63;;;23.12;79.52
7182;BME280;3632;42.724;23.298;2023-07-20T02:23:11;95037.38;;;23.34;78.58
7182;BME280;3632;42.724;23.298;2023-07-20T02:25:38;95028.97;;;23.32;77.91
7182;BME280;3632;42.724;23.298;2023-07-20T02:28:06;95035.63;;;22.88;80.16
7182;BME280;3632;42.724;23.298;2023-07-20T02:30:33;94543.03;;;20.02;79.29
7182;BME280;3632;42.724;23.298;2023-07-20T02:33:00;94909.53;;;22.46;78.90
7182;BME280;3632;42.724;23.298;2023-07-20T02:35:27;95010.75;;;23.45;77.02
7182;BME280;3632;42.724;23.298;2023-07-20T02:37:53;95016.19;;;23.23;78.61
7182;BME280;3632;42.724;23.298;2023-07-20T02:40:21;95009.44;;;22.96;80.25
7182;BME280;3632;42.724;23.298;2023-07-20T02:42:48;95012.81;;;23.16;80.01
7182;BME280;3632;42.724;23.298;2023-07-20T02:45:15;95008.59;;;23.15;77.90
7182;BME280;3632;42.724;23.298;2023-07-20T02:47:42;94999.84;;;22.90;81.09
7182;BME280;3632;42.724;23.298;2023-07-20T02:50:09;95000.22;;;23.00;80.67
7182;BME280;3632;42.724;23.298;2023-07-20T02:52:38;95002.44;;;23.03;79.57
7182;BME280;3632;42.724;23.298;2023-07-20T02:55:06;94950.91;;;22.35;79.42
7182;BME280;3632;42.724;23.298;2023-07-20T02:57:34;94987.41;;;23.05;79.09
7182;BME280;3632;42.724;23.298;2023-07-20T03:00:01;95011.03;;;22.97;79.44
7182;BME280;3632;42.724;23.298;2023-07-20T03:02:29;95005.25;;;22.89;80.80
7182;BME280;3632;42.724;23.298;2023-07-20T03:04:56;95010.63;;;23.00;80.13
7182;BME280;3632;42.724;23.298;2023-07-20T03:07:27;95008.59;;;23.09;79.57
7182;BME280;3632;42.724;23.298;2023-07-20T03:09:54;94648.94;;;20.78;79.34
7182;BME280;3632;42.724;23.298;2023-07-20T03:12:21;95005.41;;;23.13;79.88
7182;BME280;3632;42.724;23.298;2023-07-20T03:14:51;95007.41;;;23.11;79.87
7182;BME280;3632;42.724;23.298;2023-07-20T03:17:17;95027.41;;;23.04;81.21
7182;BME280;3632;42.724;23.298;2023-07-20T03:19:45;95018.63;;;23.12;81.00
7182;BME280;3632;42.724;23.298;2023-07-20T03:22:12;94905.38;;;21.93;80.43
7182;BME280;3632;42.724;23.298;2023-07-20T03:24:39;94946.91;;;22.19;81.90
7182;BME280;3632;42.724;23.298;2023-07-20T03:27:06;95031.47;;;22.74;81.34
7182;BME280;3632;42.724;23.298;2023-07-20T03:29:33;95002.44;;;22.57;82.21
7182;BME280;3632;42.724;23.298;2023-07-20T03:32:01;94892.16;;;21.94;82.12
7182;BME280;3632;42.724;23.298;2023-07-20T03:34:28;95001.06;;;22.48;83.50
7182;BME280;3632;42.724;23.298;2023-07-20T03:36:55;95013.81;;;22.50;82.82
7182;BME280;3632;42.724;23.298;2023-07-20T03:39:22;95029.22;;;22.84;82.00
7182;BME280;3632;42.724;23.298;2023-07-20T03:41:49;95036.84;;;22.99;81.43
7182;BME280;3632;42.724;23.298;2023-07-20T03:44:15;95024.63;;;23.06;80.71
7182;BME280;3632;42.724;23.298;2023-07-20T03:46:42;95026.84;;;22.89;81.60
7182;BME280;3632;42.724;23.298;2023-07-20T03:49:10;95017.47;;;22.82;83.17
7182;BME280;3632;42.724;23.298;2023-07-20T03:51:37;95024.44;;;22.88;83.24
7182;BME280;3632;42.724;23.298;2023-07-20T03:54:04;95026.41;;;23.05;81.69
7182;BME280;3632;42.724;23.298;2023-07-20T03:56:32;95023.22;;;23.03;81.34
7182;BME280;3632;42.724;23.298;2023-07-20T03:59:00;95032.59;;;23.17;80.06
7182;BME280;3632;42.724;23.298;2023-07-20T04:01:27;95026.63;;;23.04;81.23
7182;BME280;3632;42.724;23.298;2023-07-20T04:03:54;94947.47;;;22.67;81.38
7182;BME280;3632;42.724;23.298;2023-07-20T04:06:22;95029.16;;;23.37;79.12
7182;BME280;3632;42.724;23.298;2023-07-20T04:08:49;94865.59;;;22.38;77.11
7182;BME280;3632;42.724;23.298;2023-07-20T04:11:16;95032.09;;;23.66;76.71
7182;BME280;3632;42.724;23.298;2023-07-20T04:13:42;95021.50;;;23.61;76.20
7182;BME280;3632;42.724;23.298;2023-07-20T04:16:09;95001.44;;;23.68;75.37
7182;BME280;3632;42.724;23.298;2023-07-20T04:18:36;95011.16;;;23.86;74.66
7182;BME280;3632;42.724;23.298;2023-07-20T04:21:02;95003.03;;;23.70;74.92
7182;BME280;3632;42.724;23.298;2023-07-20T04:23:31;95013.00;;;23.79;75.51
7182;BME280;3632;42.724;23.298;2023-07-20T04:25:57;95028.63;;;23.79;74.95
7182;BME280;3632;42.724;23.298;2023-07-20T04:28:24;95009.34;;;23.49;77.52
7182;BME280;3632;42.724;23.298;2023-07-20T04:30:52;95011.75;;;23.44;78.96
7182;BME280;3632;42.724;23.298;2023-07-20T04:33:19;95012.69;;;23.56;78.68
7182;BME280;3632;42.724;23.298;2023-07-20T04:35:50;95008.34;;;23.50;79.16
7182;BME280;3632;42.724;23.298;2023-07-20T04:38:17;95007.03;;;23.72;78.75
7182;BME280;3632;42.724;23.298;2023-07-20T04:40:47;94937.19;;;23.25;77.74
7182;BME280;3632;42.724;23.298;2023-07-20T04:43:14;94957.09;;;23.50;77.54
7182;BME280;3632;42.724;23.298;2023-07-20T04:45:41;94998.75;;;23.88;77.37
7182;BME280;3632;42.724;23.298;2023-07-20T04:48:10;94911.38;;;23.23;76.97
7182;BME280;3632;42.724;23.298;2023-07-20T04:50:38;95006.91;;;23.98;76.25
7182;BME280;3632;42.724;23.298;2023-07-20T04:53:04;94847.53;;;22.89;75.75
7182;BME280;3632;42.724;23.298;2023-07-20T04:55:31;95004.72;;;23.95;75.76
7182;BME280;3632;42.724;23.298;2023-07-20T04:58:00;94739.03;;;22.20;76.28
7182;BME280;3632;42.724;23.298;2023-07-20T05:00:27;95013.19;;;23.84;76.27
7182;BME280;3632;42.724;23.298;2023-07-20T05:02:54;95017.47;;;23.65;75.56
7182;BME280;3632;42.724;23.298;2023-07-20T05:05:21;95016.19;;;23.81;75.78
7182;BME280;3632;42.724;23.298;2023-07-20T05:07:48;94998.22;;;23.73;76.15
7182;BME280;3632;42.724;23.298;2023-07-20T05:10:15;95014.38;;;23.82;75.60
7182;BME280;3632;42.724;23.298;2023-07-20T05:12:41;95016.84;;;23.70;75.87
7182;BME280;3632;42.724;23.298;2023-07-20T05:15:10;95020.75;;;23.92;74.02
7182;BME280;3632;42.724;23.298;2023-07-20T05:17:37;94950.47;;;23.54;73.30
7182;BME280;3632;42.724;23.298;2023-07-20T05:20:05;95013.53;;;23.94;73.53
7182;BME280;3632;42.724;23.298;2023-07-20T05:22:35;95011.03;;;24.12;73.19
7182;BME280;3632;42.724;23.298;2023-07-20T05:25:02;95016.13;;;24.32;73.14
7182;BME280;3632;42.724;23.298;2023-07-20T05:27:28;95003.91;;;23.95;73.39
7182;BME280;3632;42.724;23.298;2023-07-20T05:29:55;95020.41;;;24.51;73.29
7182;BME280;3632;42.724;23.298;2023-07-20T05:32:23;95026.25;;;24.47;73.56
7182;BME280;3632;42.724;23.298;2023-07-20T05:34:51;95019.28;;;24.66;72.38
7182;BME280;3632;42.724;23.298;2023-07-20T05:37:18;95023.47;;;24.73;71.80
7182;BME280;3632;42.724;23.298;2023-07-20T05:39:44;95025.78;;;24.81;71.37
7182;BME280;3632;42.724;23.298;2023-07-20T05:42:11;95041.09;;;24.71;70.80
7182;BME280;3632;42.724;23.298;2023-07-20T05:44:39;95007.41;;;24.45;71.65
7182;BME280;3632;42.724;23.298;2023-07-20T05:47:06;95043.81;;;24.83;70.84
7182;BME280;3632;42.724;23.298;2023-07-20T05:49:35;95043.53;;;24.97;69.65
7182;BME280;3632;42.724;23.298;2023-07-20T05:52:02;95034.75;;;24.92;69.56
7182;BME280;3632;42.724;23.298;2023-07-20T05:54:29;94961.78;;;24.36;70.38
7182;BME280;3632;42.724;23.298;2023-07-20T05:56:55;95039.91;;;24.74;70.59
7182;BME280;3632;42.724;23.298;2023-07-20T05:59:22;95003.59;;;24.72;69.92
7182;BME280;3632;42.724;23.298;2023-07-20T06:01:49;95025.66;;;24.45;69.27
7182;BME280;3632;42.724;23.298;2023-07-20T06:04:16;95028.75;;;25.10;69.13
7182;BME280;3632;42.724;23.298;2023-07-20T06:06:44;95028.72;;;25.16;69.20
7182;BME280;3632;42.724;23.298;2023-07-20T06:09:11;95027.41;;;25.07;68.92
7182;BME280;3632;42.724;23.298;2023-07-20T06:11:38;95039.84;;;24.80;69.70
7182;BME280;3632;42.724;23.298;2023-07-20T06:14:05;94930.44;;;24.24;69.36
7182;BME280;3632;42.724;23.298;2023-07-20T06:16:32;95028.56;;;25.11;69.33
7182;BME280;3632;42.724;23.298;2023-07-20T06:19:00;95023.72;;;25.33;68.84
7182;BME280;3632;42.724;23.298;2023-07-20T06:21:26;95024.44;;;25.22;67.43
7182;BME280;3632;42.724;23.298;2023-07-20T06:23:55;95012.41;;;25.39;67.13
7182;BME280;3632;42.724;23.298;2023-07-20T06:26:21;95008.34;;;25.43;65.75
7182;BME280;3632;42.724;23.298;2023-07-20T06:28:48;95008.84;;;25.33;65.90
7182;BME280;3632;42.724;23.298;2023-07-20T06:31:16;94999.38;;;25.57;65.88
7182;BME280;3632;42.724;23.298;2023-07-20T06:33:42;95009.75;;;25.45;65.90
7182;BME280;3632;42.724;23.298;2023-07-20T06:36:09;95004.16;;;25.60;65.86
7182;BME280;3632;42.724;23.298;2023-07-20T06:38:36;94999.22;;;25.70;66.46
7182;BME280;3632;42.724;23.298;2023-07-20T06:41:04;95003.84;;;25.86;66.35
7182;BME280;3632;42.724;23.298;2023-07-20T06:43:31;95006.44;;;25.86;66.74
7182;BME280;3632;42.724;23.298;2023-07-20T06:45:57;95009.19;;;25.91;64.84
7182;BME280;3632;42.724;23.298;2023-07-20T06:48:24;94987.31;;;25.92;64.96
7182;BME280;3632;42.724;23.298;2023-07-20T06:50:51;95005.59;;;26.22;63.99
7182;BME280;3632;42.724;23.298;2023-07-20T06:53:17;95006.53;;;26.40;63.45
7182;BME280;3632;42.724;23.298;2023-07-20T06:55:44;95009.31;;;26.56;63.16
7182;BME280;3632;42.724;23.298;2023-07-20T06:58:12;95020.78;;;26.78;61.72
7182;BME280;3632;42.724;23.298;2023-07-20T07:00:39;94574.59;;;24.11;60.29
7182;BME280;3632;42.724;23.298;2023-07-20T07:03:06;95029.94;;;26.99;60.96
7182;BME280;3632;42.724;23.298;2023-07-20T07:05:36;95021.19;;;27.17;60.04
7182;BME280;3632;42.724;23.298;2023-07-20T07:08:03;95025.16;;;27.08;61.40
7182;BME280;3632;42.724;23.298;2023-07-20T07:10:30;95035.97;;;27.00;60.04
7182;BME280;3632;42.724;23.298;2023-07-20T07:12:57;95041.09;;;27.06;59.75
7182;BME280;3632;42.724;23.298;2023-07-20T07:15:25;94872.84;;;25.30;58.15
7182;BME280;3632;42.724;23.298;2023-07-20T07:17:52;95020.34;;;26.70;58.80
7182;BME280;3632;42.724;23.298;2023-07-20T07:20:19;95068.75;;;27.02;58.42
7182;BME280;3632;42.724;23.298;2023-07-20T07:22:47;95075.78;;;27.02;58.72
7182;BME280;3632;42.724;23.298;2023-07-20T07:25:13;95074.06;;;26.96;60.24
7182;BME280;3632;42.724;23.298;2023-07-20T07:27:40;95066.75;;;26.33;61.02
7182;BME280;3632;42.724;23.298;2023-07-20T07:30:08;95066.41;;;26.41;60.82
7182;BME280;3632;42.724;23.298;2023-07-20T07:32:36;94831.63;;;24.90;61.36
7182;BME280;3632;42.724;23.298;2023-07-20T07:35:09;95057.25;;;26.50;60.99
7182;BME280;3632;42.724;23.298;2023-07-20T07:37:36;95047.06;;;26.72;57.05
7182;BME280;3632;42.724;23.298;2023-07-20T07:40:06;95056.03;;;26.64;57.54
7182;BME280;3632;42.724;23.298;2023-07-20T07:42:38;95065.75;;;26.87;57.90
7182;BME280;3632;42.724;23.298;2023-07-20T07:45:06;95060.66;;;27.04;58.09
7182;BME280;3632;42.724;23.298;2023-07-20T07:47:33;95047.22;;;27.00;57.93
7182;BME280;3632;42.724;23.298;2023-07-20T07:50:02;94995.38;;;26.86;61.26
7182;BME280;3632;42.724;23.298;2023-07-20T07:52:28;95023.34;;;26.97;60.50
7182;BME280;3632;42.724;23.298;2023-07-20T07:54:55;95038.38;;;27.01;58.39
7182;BME280;3632;42.724;23.298;2023-07-20T07:57:22;95042.56;;;27.14;58.77
7182;BME280;3632;42.724;23.298;2023-07-20T07:59:48;95027.09;;;27.24;58.68
7182;BME280;3632;42.724;23.298;2023-07-20T08:02:15;95055.63;;;27.37;58.73
7182;BME280;3632;42.724;23.298;2023-07-20T08:04:42;95030.50;;;27.13;59.29
7182;BME280;3632;42.724;23.298;2023-07-20T08:07:11;95059.28;;;27.36;59.20
7182;BME280;3632;42.724;23.298;2023-07-20T08:09:37;94963.28;;;26.78;60.13
7182;BME280;3632;42.724;23.298;2023-07-20T08:12:05;95066.47;;;27.52;60.26
7182;BME280;3632;42.724;23.298;2023-07-20T08:14:32;95077.81;;;27.46;61.18
7182;BME280;3632;42.724;23.298;2023-07-20T08:16:59;95040.28;;;27.29;61.24
7182;BME280;3632;42.724;23.298;2023-07-20T08:19:26;94989.66;;;26.77;60.96
7182;BME280;3632;42.724;23.298;2023-07-20T08:21:52;95094.44;;;27.28;59.65
7182;BME280;3632;42.724;23.298;2023-07-20T08:24:21;95076.59;;;27.25;58.12
7182;BME280;3632;42.724;23.298;2023-07-20T08:26:48;95089.56;;;27.09;57.21
7182;BME280;3632;42.724;23.298;2023-07-20T08:29:14;95068.72;;;27.25;57.71
7182;BME280;3632;42.724;23.298;2023-07-20T08:31:41;95074.50;;;26.81;54.66
7182;BME280;3632;42.724;23.298;2023-07-20T08:34:08;95077.72;;;27.18;54.32
7182;BME280;3632;42.724;23.298;2023-07-20T08:36:35;95083.41;;;27.15;54.41
7182;BME280;3632;42.724;23.298;2023-07-20T08:39:02;95069.28;;;27.04;53.12
7182;BME280;3632;42.724;23.298;2023-07-20T08:41:31;95067.25;;;27.06;53.47
7182;BME280;3632;42.724;23.298;2023-07-20T08:43:58;95070.19;;;27.33;52.90
7182;BME280;3632;42.724;23.298;2023-07-20T08:46:27;95059.41;;;27.41;51.83
7182;BME280;3632;42.724;23.298;2023-07-20T08:48:54;95069.16;;;27.81;51.95
7182;BME280;3632;42.724;23.298;2023-07-20T08:51:21;95067.91;;;28.23;50.65
7182;BME280;3632;42.724;23.298;2023-07-20T08:53:51;95055.09;;;28.38;49.31
7182;BME280;3632;42.724;23.298;2023-07-20T08:56:18;94813.34;;;26.85;49.26
7182;BME280;3632;42.724;23.298;2023-07-20T08:58:47;94877.88;;;26.96;49.77
7182;BME280;3632;42.724;23.298;2023-07-20T09:01:14;95065.59;;;28.55;49.21
7182;BME280;3632;42.724;23.298;2023-07-20T09:03:42;95051.19;;;28.41;49.92
7182;BME280;3632;42.724;23.298;2023-07-20T09:06:12;95041.59;;;28.46;50.18
7182;BME280;3632;42.724;23.298;2023-07-20T09:08:38;95041.72;;;28.85;49.42
7182;BME280;3632;42.724;23.298;2023-07-20T09:11:05;95043.13;;;29.09;49.13
7182;BME280;3632;42.724;23.298;2023-07-20T09:13:32;95070.66;;;29.07;48.78
7182;BME280;3632;42.724;23.298;2023-07-20T09:16:00;94682.28;;;26.98;48.58
7182;BME280;3632;42.724;23.298;2023-07-20T09:18:31;95027.19;;;29.49;48.98
7182;BME280;3632;42.724;23.298;2023-07-20T09:21:01;95000.41;;;29.30;48.21
7182;BME280;3632;42.724;23.298;2023-07-20T09:23:32;95044.81;;;29.15;48.65
7182;BME280;3632;42.724;23.298;2023-07-20T09:26:09;94958.31;;;28.87;48.82
7182;BME280;3632;42.724;23.298;2023-07-20T09:28:41;95021.34;;;29.09;48.55
7182;BME280;3632;42.724;23.298;2023-07-20T09:31:16;95013.19;;;29.65;48.38
7182;BME280;3632;42.724;23.298;2023-07-20T09:33:44;95015.25;;;29.85;47.90
7182;BME280;3632;42.724;23.298;2023-07-20T09:36:10;94963.00;;;29.40;46.63
7182;BME280;3632;42.724;23.298;2023-07-20T09:38:37;95018.47;;;29.65;47.20
7182;BME280;3632;42.724;23.298;2023-07-20T09:41:05;95018.50;;;29.92;46.39
7182;BME280;3632;42.724;23.298;2023-07-20T09:43:34;95014.59;;;30.16;46.10
7182;BME280;3632;42.724;23.298;2023-07-20T09:46:01;95015.16;;;30.23;44.60
7182;BME280;3632;42.724;23.298;2023-07-20T09:48:29;94988.78;;;30.13;44.81
7182;BME280;3632;42.724;23.298;2023-07-20T09:50:56;95009.38;;;30.21;44.95
7182;BME280;3632;42.724;23.298;2023-07-20T09:53:24;94992.56;;;29.96;44.10
7182;BME280;3632;42.724;23.298;2023-07-20T09:55:52;94874.09;;;28.50;45.24
7182;BME280;3632;42.724;23.298;2023-07-20T09:58:21;94995.63;;;29.66;44.04
7182;BME280;3632;42.724;23.298;2023-07-20T10:00:50;94989.41;;;29.77;44.77
7182;BME280;3632;42.724;23.298;2023-07-20T10:03:19;94982.88;;;29.79;44.48
7182;BME280;3632;42.724;23.298;2023-07-20T10:05:52;94838.25;;;28.94;43.73
7182;BME280;3632;42.724;23.298;2023-07-20T10:08:23;94989.56;;;29.87;44.11
7182;BME280;3632;42.724;23.298;2023-07-20T10:10:50;95002.81;;;29.97;43.39
7182;BME280;3632;42.724;23.298;2023-07-20T10:13:20;94931.22;;;29.41;42.59
7182;BME280;3632;42.724;23.298;2023-07-20T10:15:50;94992.34;;;29.59;42.87
7182;BME280;3632;42.724;23.298;2023-07-20T10:18:25;95000.59;;;29.67;43.33
7182;BME280;3632;42.724;23.298;2023-07-20T10:20:56;94992.50;;;29.69;43.08
7182;BME280;3632;42.724;23.298;2023-07-20T10:23:26;95001.53;;;29.78;42.97
7182;BME280;3632;42.724;23.298;2023-07-20T10:25:55;94809.00;;;28.08;42.06
7182;BME280;3632;42.724;23.298;2023-07-20T10:28:23;94921.25;;;29.00;42.66
7182;BME280;3632;42.724;23.298;2023-07-20T10:30:50;94590.25;;;27.17;41.95
7182;BME280;3632;42.724;23.298;2023-07-20T10:33:18;94962.63;;;29.31;43.22
7182;BME280;3632;42.724;23.298;2023-07-20T10:35:55;94962.22;;;29.23;44.20
7182;BME280;3632;42.724;23.298;2023-07-20T10:38:40;94986.88;;;29.22;45.29
7182;BME280;3632;42.724;23.298;2023-07-20T10:41:28;94983.31;;;29.28;45.07
7182;BME280;3632;42.724;23.298;2023-07-20T10:44:01;94824.66;;;28.20;45.68
7182;BME280;3632;42.724;23.298;2023-07-20T10:46:35;94937.19;;;29.15;45.44
7182;BME280;3632;42.724;23.298;2023-07-20T10:49:15;94915.72;;;29.40;45.15
7182;BME280;3632;42.724;23.298;2023-07-20T10:52:08;94652.94;;;27.96;44.23
7182;BME280;3632;42.724;23.298;2023-07-20T10:54:50;94961.09;;;30.06;44.23
7182;BME280;3632;42.724;23.298;2023-07-20T10:57:30;94538.25;;;27.21;43.31
7182;BME280;3632;42.724;23.298;2023-07-20T11:00:15;94557.97;;;27.45;44.48
7182;BME280;3632;42.724;23.298;2023-07-20T11:02:58;94725.59;;;29.09;44.41
7182;BME280;3632;42.724;23.298;2023-07-20T11:05:39;94566.66;;;28.59;45.85
7182;BME280;3632;42.724;23.298;2023-07-20T11:08:12;94917.00;;;31.18;44.01
7182;BME280;3632;42.724;23.298;2023-07-20T11:10:39;94922.34;;;31.49;41.98
7182;BME280;3632;42.724;23.298;2023-07-20T11:13:20;94913.94;;;31.47;41.90
7182;BME280;3632;42.724;23.298;2023-07-20T11:15:48;94916.53;;;31.42;42.17
7182;BME280;3632;42.724;23.298;2023-07-20T11:18:15;94914.75;;;31.52;41.45
7182;BME280;3632;42.724;23.298;2023-07-20T11:20:42;94924.25;;;31.58;41.66
7182;BME280;3632;42.724;23.298;2023-07-20T11:23:10;94831.63;;;31.04;42.34
7182;BME280;3632;42.724;23.298;2023-07-20T11:25:38;94905.56;;;31.70;42.14
7182;BME280;3632;42.724;23.298;2023-07-20T11:28:09;94916.13;;;31.65;41.87
7182;BME280;3632;42.724;23.298;2023-07-20T11:30:36;94834.31;;;31.24;40.73
7182;BME280;3632;42.724;23.298;2023-07-20T11:33:03;94867.16;;;31.89;40.93
7182;BME280;3632;42.724;23.298;2023-07-20T11:35:30;94902.50;;;32.44;41.26
7182;BME280;3632;42.724;23.298;2023-07-20T11:37:57;94895.38;;;32.70;40.87
7182;BME280;3632;42.724;23.298;2023-07-20T11:40:25;94885.31;;;32.87;39.62
7182;BME280;3632;42.724;23.298;2023-07-20T11:42:53;94670.03;;;31.56;39.58
7182;BME280;3632;42.724;23.298;2023-07-20T11:45:20;94886.63;;;33.59;38.92
7182;BME280;3632;42.724;23.298;2023-07-20T11:47:46;94876.13;;;33.92;39.59
7182;BME280;3632;42.724;23.298;2023-07-20T11:50:13;94873.38;;;34.08;38.80
7182;BME280;3632;42.724;23.298;2023-07-20T11:52:41;94755.00;;;33.22;38.55
7182;BME280;3632;42.724;23.298;2023-07-20T11:55:08;94869.03;;;34.56;39.01
7182;BME280;3632;42.724;23.298;2023-07-20T11:57:37;94861.81;;;34.66;35.57
7182;BME280;3632;42.724;23.298;2023-07-20T12:00:16;94810.06;;;34.21;35.57
7182;BME280;3632;42.724;23.298;2023-07-20T12:02:48;94715.22;;;33.81;36.33
7182;BME280;3632;42.724;23.298;2023-07-20T12:05:25;94505.06;;;32.29;36.98
7182;BME280;3632;42.724;23.298;2023-07-20T12:07:57;94634.44;;;33.65;35.66
7182;BME280;3632;42.724;23.298;2023-07-20T12:10:29;94843.09;;;35.29;35.11
7182;BME280;3632;42.724;23.298;2023-07-20T12:13:02;94809.78;;;35.23;35.92
7182;BME280;3632;42.724;23.298;2023-07-20T12:15:29;94840.16;;;35.49;34.51
7182;BME280;3632;42.724;23.298;2023-07-20T12:18:03;94776.44;;;35.22;34.11
7182;BME280;3632;42.724;23.298;2023-07-20T12:21:05;94489.53;;;33.48;34.31
7182;BME280;3632;42.724;23.298;2023-07-20T12:23:41;94835.13;;;35.71;36.04
7182;BME280;3632;42.724;23.298;2023-07-20T12:26:10;94828.38;;;35.79;34.16
7182;BME280;3632;42.724;23.298;2023-07-20T12:28:41;94831.00;;;35.60;34.42
7182;BME280;3632;42.724;23.298;2023-07-20T12:31:09;94825.00;;;35.73;33.62
7182;BME280;3632;42.724;23.298;2023-07-20T12:33:36;94826.47;;;35.61;32.55
7182;BME280;3632;42.724;23.298;2023-07-20T12:36:04;94814.09;;;35.75;32.58
7182;BME280;3632;42.724;23.298;2023-07-20T12:38:31;94812.19;;;36.13;31.91
7182;BME280;3632;42.724;23.298;2023-07-20T12:41:00;94820.44;;;36.11;31.72
7182;BME280;3632;42.724;23.298;2023-07-20T12:43:27;94810.69;;;36.07;31.61
7182;BME280;3632;42.724;23.298;2023-07-20T12:45:55;94812.19;;;36.13;32.70
7182;BME280;3632;42.724;23.298;2023-07-20T12:48:22;94810.84;;;36.61;32.06
7182;BME280;3632;42.724;23.298;2023-07-20T12:50:49;94789.19;;;36.68;30.77
7182;BME280;3632;42.724;23.298;2023-07-20T12:53:15;94813.28;;;36.99;31.02
7182;BME280;3632;42.724;23.298;2023-07-20T12:55:42;94808.97;;;37.03;30.83
7182;BME280;3632;42.724;23.298;2023-07-20T12:58:09;94815.66;;;37.00;31.59
7182;BME280;3632;42.724;23.298;2023-07-20T13:00:36;94813.91;;;36.96;30.97
7182;BME280;3632;42.724;23.298;2023-07-20T13:03:04;94815.94;;;36.85;29.88
7182;BME280;3632;42.724;23.298;2023-07-20T13:05:32;94808.59;;;36.82;30.58
7182;BME280;3632;42.724;23.298;2023-07-20T13:07:59;94540.13;;;34.69;31.09
7182;BME280;3632;42.724;23.298;2023-07-20T13:10:26;94810.06;;;36.29;31.69
7182;BME280;3632;42.724;23.298;2023-07-20T13:12:53;94775.25;;;35.65;32.16
7182;BME280;3632;42.724;23.298;2023-07-20T13:15:20;94807.88;;;35.85;31.71
7182;BME280;3632;42.724;23.298;2023-07-20T13:17:46;94795.59;;;35.89;32.72